Home > Products > Valid Products > TAF

000
FTUS44 KCRP 020542
TAFVCT
TAF
KVCT 020542Z 0206/0306 03010KT P6SM BKN015 BKN025
      TEMPO 0206/0208 6SM BR BKN008
     FM020800 03010KT 4SM BR VCTS OVC009CB
      TEMPO 0208/0211 2SM -TSRA OVC006CB
     FM021500 01015G20KT P6SM VCSH BKN025
     FM021800 36015G20KT P6SM BKN035
     FM030000 36007KT P6SM SCT035=



000
FTUS44 KCRP 020542
TAFCRP
TAF
KCRP 020542Z 0206/0306 06008KT 5SM BR VCSH BKN015 BKN025
     FM020900 02012KT 5SM BR VCSH OVC015
     FM021100 02014KT 5SM BR VCTS OVC015CB
     FM021400 36015G20KT P6SM VCSH BKN015 OVC025
     FM022000 01017G23KT P6SM BKN035
     FM030100 01008KT P6SM SCT040=



000
FTUS44 KCRP 020542
TAFLRD
TAF
KLRD 020542Z 0206/0306 04015G22KT P6SM VCSH BKN035
     FM020800 02012KT P6SM VCTS OVC025CB
      TEMPO 0208/0212 5SM -TSRA OVC015CB
     FM021600 36012KT P6SM VCSH SCT009 OVC029
     FM021800 36015KT P6SM BKN035=



000
FTUS44 KCRP 020542
TAFALI
TAF
KALI 020542Z 0206/0306 02011KT P6SM BKN025
     FM020800 02011KT 5SM BR VCSH OVC015
     FM021000 02014KT 5SM BR VCTS OVC015CB
     FM021400 01014G20KT P6SM VCSH BKN015 OVC025
     FM021900 01018G24KT P6SM BKN035
     FM030100 01008KT P6SM SCT040=



000
FTUS44 KCRP 020345 AAB
TAFCRP
TAF AMD
KCRP 020345Z 0204/0224 10011KT P6SM SCT010 BKN250
     FM020600 06008KT 5SM BR VCSH OVC011
      TEMPO 0206/0210 4SM TSRA OVC008CB
     FM021000 02011KT 5SM -SHRA OVC010
     FM021400 01015KT P6SM VCSH BKN015 OVC025 PROB30 0214/0220 -TSRA
      BKN025CB=



000
FTUS44 KCRP 020233 AAA
TAFALI
TAF AMD
KALI 020233Z 0203/0224 07011KT 6SM BR BKN028
      TEMPO 0204/0208 2SM TSRA OVC012CB
     FM021000 02012KT 5SM -SHRA OVC010
     FM021400 01014KT P6SM VCSH BKN015 OVC025 PROB30 0214/0220 -TSRA
      BKN025CB=



000
FTUS44 KCRP 020231 AAA
TAFVCT
TAF AMD
KVCT 020231Z 0203/0224 03010KT P6SM VCSH SCT030 BKN040
      TEMPO 0203/0207 5SM -SHRA BR BKN025
     FM020700 03010KT 4SM BR VCTS OVC009CB
      TEMPO 0207/0211 2SM -TSRA OVC006CB
     FM021500 01014KT P6SM VCSH BKN025 PROB30 0215/0221 -TSRA
      BKN025CB=



000
FTUS44 KCRP 020229 AAA
TAFLRD
TAF AMD
KLRD 020229Z 0202/0224 04015G22KT P6SM VCSH BKN030
      TEMPO 0205/0209 VRB20G30KT 5SM TSRA OVC020CB
     FM020900 02012KT P6SM OVC020
      TEMPO 0209/0212 5SM -TSRA OVC015CB
     FM021600 36012KT P6SM VCSH SCT009 OVC029=



000
FTUS44 KCRP 012321
TAFALI
TAF
KALI 012321Z 0200/0224 08011KT P6SM SCT035 BKN050
     FM020400 07006KT 4SM BR OVC015
      TEMPO 0204/0208 2SM TSRA OVC012CB
     FM021000 02012KT 5SM -SHRA OVC010
     FM021400 01014KT P6SM VCSH BKN015 OVC025 PROB30 0214/0220 -TSRA
      BKN025CB=



000
FTUS44 KCRP 012321
TAFVCT
TAF
KVCT 012321Z 0200/0224 03010KT P6SM VCSH SCT030 BKN080
     FM020200 08008KT 5SM BR VCSH BKN012 OVC040
     FM020700 03010KT 4SM BR VCTS OVC009CB
      TEMPO 0207/0211 2SM -TSRA OVC006CB
     FM021500 01014KT P6SM VCSH BKN025 PROB30 0215/0221 -TSRA
      BKN025CB=



000
FTUS44 KCRP 012321
TAFCRP
TAF
KCRP 012321Z 0200/0224 10011KT P6SM SCT030 BKN250
     FM020300 09011KT 5SM HZ BKN015
     FM020600 06008KT 5SM BR VCSH OVC011
      TEMPO 0206/0210 4SM TSRA OVC008CB
     FM021000 02011KT 5SM -SHRA OVC010
     FM021400 01015KT P6SM VCSH BKN015 OVC025 PROB30 0214/0220 -TSRA
      BKN025CB=



000
FTUS44 KCRP 012321
TAFLRD
TAF
KLRD 012321Z 0200/0224 09008KT P6SM BKN070
     FM020200 05012KT P6SM VCTS BKN030CB
      TEMPO 0203/0207 VRB20G30KT 5SM TSRA OVC020CB
     FM020700 02012KT P6SM OVC020
      TEMPO 0207/0211 5SM -TSRA OVC015CB
     FM021600 36012KT P6SM VCSH SCT009 OVC029=



000
FTUS44 KCRP 011740
TAFALI
TAF
KALI 011740Z 0118/0218 08008KT P6SM SCT035 BKN050
     FM020200 10008KT 5SM HZ BKN015
     FM020500 06006KT 4SM BR OVC015
      TEMPO 0205/0209 2SM TSRA OVC012CB
     FM020900 02012KT 5SM -SHRA OVC008
     FM021400 01014KT 6SM BR OVC015=



000
FTUS44 KCRP 011740
TAFVCT
TAF
KVCT 011740Z 0118/0218 07010KT P6SM VCSH BKN030
      TEMPO 0118/0120 BKN035
     FM020200 08008KT 5SM BR BKN012 OVC040
     FM020800 03010KT 4SM BR OVC008
      TEMPO 0208/0212 2SM -TSRA OVC006CB
     FM021500 01014KT P6SM BKN025=



000
FTUS44 KCRP 011740
TAFLRD
TAF
KLRD 011740Z 0118/0218 10008KT P6SM BKN040
     FM020200 05012KT P6SM BKN030
      TEMPO 0202/0206 VRB20G30KT 5SM TSRA OVC020CB
     FM020600 02012KT P6SM OVC020
      TEMPO 0206/0210 5SM -TSRA OVC015CB
     FM021600 36012KT P6SM VCSH SCT009 OVC025=



000
FTUS44 KCRP 011740
TAFCRP
TAF
KCRP 011740Z 0118/0218 12008KT P6SM SCT030 BKN050
     FM020200 11010KT 5SM HZ BKN015
     FM020600 07008KT 5SM BR VCSH OVC011
      TEMPO 0206/0210 4SM TSRA OVC008CB
     FM021000 02011KT 5SM -SHRA OVC007
     FM021300 01015KT P6SM OVC015=



000
FTUS44 KCRP 011740
TAFALI
TAF
KALI 011740Z 0118/0218 08008KT P6SM SCT035 BKN050
     FM020200 10008KT 5SM HZ BKN015
     FM020500 06006KT 4SM BR OVC015
      TEMPO 0205/0209 2SM TSRA OVC012CB
     FM020900 02012KT 5SM -SHRA OVC008
     FM021400 01014KT 6SM BR OVC015=



000
FTUS44 KCRP 011740
TAFLRD
TAF
KLRD 011740Z 0118/0218 10008KT P6SM BKN040
     FM020200 05012KT P6SM BKN030
      TEMPO 0202/0206 VRB20G30KT 5SM TSRA OVC020CB
     FM020600 02012KT P6SM OVC020
      TEMPO 0206/0210 5SM -TSRA OVC015CB
     FM021600 36012KT P6SM VCSH SCT009 OVC025=



000
FTUS44 KCRP 011740
TAFVCT
TAF
KVCT 011740Z 0118/0218 07010KT P6SM VCSH BKN030
      TEMPO 0118/0120 BKN035
     FM020200 08008KT 5SM BR BKN012 OVC040
     FM020800 03010KT 4SM BR OVC008
      TEMPO 0208/0212 2SM -TSRA OVC006CB
     FM021500 01014KT P6SM BKN025=



000
FTUS44 KCRP 011740
TAFCRP
TAF
KCRP 011740Z 0118/0218 12008KT P6SM SCT030 BKN050
     FM020200 11010KT 5SM HZ BKN015
     FM020600 07008KT 5SM BR VCSH OVC011
      TEMPO 0206/0210 4SM TSRA OVC008CB
     FM021000 02011KT 5SM -SHRA OVC007
     FM021300 01015KT P6SM OVC015=



000
FTUS44 KCRP 011305 AAA
TAFALI
TAF AMD
KALI 011305Z 0113/0212 06004KT 3SM BR SCT008 OVC020
     FM011500 08008KT 6SM HZ BKN012 OVC025
     FM012000 09010KT P6SM BKN030
     FM020200 10008KT 5SM HZ BKN015
     FM020500 06006KT 4SM BR OVC015
      TEMPO 0205/0209 2SM TSRA OVC012CB
     FM020900 02012KT 5SM -SHRA OVC008=



000
FTUS44 KCRP 011258 AAA
TAFVCT
TAF AMD
KVCT 011258Z 0113/0212 01008KT 4SM BR OVC012
     FM011500 05008KT 5SM HZ VCSH BKN012 OVC025
     FM011900 07010KT P6SM VCSH BKN018 OVC030
     FM020200 08008KT 5SM BR BKN012 OVC040
     FM020800 03010KT 4SM BR OVC008
      TEMPO 0208/0212 2SM -TSRA OVC006CB=



000
FTUS44 KCRP 011258 AAA
TAFVCT
TAF AMD
KVCT 011258Z 0113/0212 01008KT 4SM BR OVC012
     FM011500 05008KT 5SM HZ VCSH BKN012 OVC025
     FM011900 07010KT P6SM VCSH BKN018 OVC030
     FM020200 08008KT 5SM BR BKN012 OVC040
     FM020800 03010KT 4SM BR OVC008
      TEMPO 0208/0212 2SM -TSRA OVC006CB=



000
FTUS44 KCRP 011253 AAA
TAFCRP
TAF AMD
KCRP 011253Z 0113/0212 10007KT P6SM SCT012 SCT025 BKN050
      TEMPO 0113/0115 BKN025
     FM011500 10009KT 6SM HZ VCSH BKN015 OVC030
     FM011900 12012KT P6SM BKN030
     FM020200 11010KT 5SM HZ BKN015
     FM020600 07008KT 5SM BR VCSH OVC011
      TEMPO 0206/0210 4SM TSRA OVC008CB
     FM021000 02011KT 5SM -SHRA OVC007=



000
FTUS44 KCRP 011253 AAA
TAFCRP
TAF AMD
KCRP 011253Z 0113/0212 10007KT P6SM SCT012 SCT025 BKN050
      TEMPO 0113/0115 BKN025
     FM011500 10009KT 6SM HZ VCSH BKN015 OVC030
     FM011900 12012KT P6SM BKN030
     FM020200 11010KT 5SM HZ BKN015
     FM020600 07008KT 5SM BR VCSH OVC011
      TEMPO 0206/0210 4SM TSRA OVC008CB
     FM021000 02011KT 5SM -SHRA OVC007=



000
FTUS44 KCRP 011124
TAFALI
TAF
KALI 011124Z 0112/0212 06004KT 3SM BR SCT008 OVC018
      TEMPO 0112/0115 2SM BR BKN008
     FM011500 08008KT 6SM HZ BKN012 OVC025
     FM012000 09010KT P6SM BKN030
     FM020200 10008KT 5SM HZ BKN015
     FM020500 06006KT 4SM BR OVC015
      TEMPO 0205/0209 2SM TSRA OVC012CB
     FM020900 02012KT 5SM -SHRA OVC008=



000
FTUS44 KCRP 011124
TAFVCT
TAF
KVCT 011124Z 0112/0212 03008KT 4SM BR OVC006
      TEMPO 0112/0115 2SM BR OVC004
     FM011500 05008KT 5SM HZ VCSH BKN012 OVC025
     FM011900 07010KT P6SM VCSH BKN018 OVC030
     FM020200 08008KT 5SM BR BKN012 OVC040
     FM020800 03010KT 4SM BR OVC008
      TEMPO 0208/0212 2SM -TSRA OVC006CB=



000
FTUS44 KCRP 011124
TAFLRD
TAF
KLRD 011124Z 0112/0212 10005KT 6SM HZ BKN016
     FM011600 08007KT P6SM BKN018
     FM011900 06011KT P6SM BKN040
     FM020200 05012KT P6SM BKN030
      TEMPO 0202/0206 VRB20G30KT 5SM TSRA OVC020CB
     FM020600 02012KT P6SM OVC020
      TEMPO 0206/0210 5SM -TSRA OVC015CB=



000
FTUS44 KCRP 011124
TAFCRP
TAF
KCRP 011124Z 0112/0212 10007KT P6SM SCT012 BKN025
      TEMPO 0112/0115 5SM BR BKN012 OVC025
     FM011500 10009KT 6SM HZ VCSH BKN015 OVC030
     FM011900 12012KT P6SM BKN030
     FM020200 11010KT 5SM HZ BKN015
     FM020600 07008KT 5SM BR VCSH OVC011
      TEMPO 0206/0210 4SM TSRA OVC008CB
     FM021000 02011KT 5SM -SHRA OVC007=



000
FTUS44 KCRP 010905 AAA
TAFVCT
TAF AMD
KVCT 010905Z 0109/0206 04005KT 2SM BR BKN006 OVC012
      TEMPO 0110/0114 1SM BR OVC005
     FM011500 07008KT 5SM HZ VCSH BKN012 OVC025
     FM011900 08010KT P6SM BKN018 OVC030 PROB30 0119/0123 5SM TSRA
      OVC015CB
     FM020200 06008KT 5SM BR OVC012=



000
FTUS44 KCRP 010904 AAC
TAFCRP
TAF AMD
KCRP 010904Z 0109/0206 08005KT P6SM SCT012 BKN018
      TEMPO 0110/0114 4SM BR BKN012 OVC018
     FM011500 10010KT 6SM HZ VCSH BKN015 OVC030
     FM011900 12012KT P6SM BKN030
     FM020200 11010KT 5SM HZ BKN015=



000
FTUS44 KCRP 010903 AAB
TAFALI
TAF AMD
KALI 010903Z 0109/0206 08004KT 3SM BR SCT008 OVC014
      TEMPO 0110/0114 2SM BR BKN008
     FM011500 09008KT 6SM HZ BKN015 OVC030
     FM012000 11011KT P6SM BKN035
     FM020200 10008KT 5SM HZ BKN015=



000
FTUS44 KCRP 010651 AAB
TAFCRP
TAF AMD
KCRP 010651Z 0107/0206 10009KT P6SM BKN012 BKN250
     FM010900 10006KT 4SM BR BKN009
     FM011500 10010KT 6SM HZ VCSH BKN015 OVC030
     FM011900 12012KT P6SM BKN030
     FM020200 11010KT 5SM HZ BKN015=



000
FTUS44 KCRP 010651 AAB
TAFCRP
TAF AMD
KCRP 010651Z 0107/0206 10009KT P6SM BKN012 BKN250
     FM010900 10006KT 4SM BR BKN009
     FM011500 10010KT 6SM HZ VCSH BKN015 OVC030
     FM011900 12012KT P6SM BKN030
     FM020200 11010KT 5SM HZ BKN015=



000
FTUS44 KCRP 010612 AAA
TAFALI
TAF AMD
KALI 010612Z 0106/0206 08004KT 2SM BR BKN008 OVC014
      TEMPO 0106/0109 1SM BR OVC008
     FM010900 VRB03KT 1/2SM FG OVC005
     FM011500 09008KT 6SM HZ BKN015 OVC030
     FM012000 11011KT P6SM BKN035
     FM020200 10008KT 5SM HZ BKN015=



000
FTUS44 KCRP 010612 AAA
TAFALI
TAF AMD
KALI 010612Z 0106/0206 08004KT 2SM BR BKN008 OVC014
      TEMPO 0106/0109 1SM BR OVC008
     FM010900 VRB03KT 1/2SM FG OVC005
     FM011500 09008KT 6SM HZ BKN015 OVC030
     FM012000 11011KT P6SM BKN035
     FM020200 10008KT 5SM HZ BKN015=



000
FTUS44 KCRP 010532
TAFCRP
TAF
KCRP 010532Z 0106/0206 10009KT P6SM SCT015 BKN250
     FM010800 10007KT 5SM BR SCT012
     FM011000 10005KT 4SM BR BKN010
     FM011500 10010KT 6SM HZ VCSH BKN015 OVC030
     FM011900 12012KT P6SM BKN030
     FM020200 11010KT 5SM HZ BKN015=



000
FTUS44 KCRP 010532
TAFALI
TAF
KALI 010532Z 0106/0206 06005KT 3SM BR SCT015 BKN250
     FM010800 08005KT 2SM BR BKN008
      TEMPO 0109/0113 1/2SM FG BKN005
     FM011500 09008KT 6SM HZ BKN015 OVC030
     FM012000 11011KT P6SM BKN035
     FM020200 10008KT 5SM HZ BKN015=



000
FTUS44 KCRP 010532
TAFVCT
TAF
KVCT 010532Z 0106/0206 08005KT 2SM BR SCT015 BKN030
      TEMPO 0106/0108 1SM BR BKN015
     FM010800 08005KT 1SM BR SCT006 BKN012
      TEMPO 0108/0112 1/2SM FG BKN005
     FM011500 08008KT 5SM HZ VCSH BKN012 OVC025
     FM011900 09010G15KT P6SM BKN018 OVC030 PROB30 0119/0123 5SM
      TSRA OVC015CB
     FM020200 06008KT 5SM BR OVC012=



000
FTUS44 KCRP 010532
TAFLRD
TAF
KLRD 010532Z 0106/0206 06007KT P6SM SCT250
     FM010900 10005KT 6SM HZ SCT007 BKN012
      TEMPO 0110/0113 3SM BR BKN007
     FM011600 09007KT P6SM BKN018
     FM012000 09011KT P6SM SCT040
     FM020200 08012KT P6SM BKN030 PROB30 0202/0206 5SM TSRA
      OVC020CB=



000
FTUS44 KCRP 010532
TAFALI
TAF
KALI 010532Z 0106/0206 06005KT 3SM BR SCT015 BKN250
     FM010800 08005KT 2SM BR BKN008
      TEMPO 0109/0113 1/2SM FG BKN005
     FM011500 09008KT 6SM HZ BKN015 OVC030
     FM012000 11011KT P6SM BKN035
     FM020200 10008KT 5SM HZ BKN015=



000
FTUS44 KCRP 010532
TAFCRP
TAF
KCRP 010532Z 0106/0206 10009KT P6SM SCT015 BKN250
     FM010800 10007KT 5SM BR SCT012
     FM011000 10005KT 4SM BR BKN010
     FM011500 10010KT 6SM HZ VCSH BKN015 OVC030
     FM011900 12012KT P6SM BKN030
     FM020200 11010KT 5SM HZ BKN015=



000
FTUS44 KCRP 010532
TAFLRD
TAF
KLRD 010532Z 0106/0206 06007KT P6SM SCT250
     FM010900 10005KT 6SM HZ SCT007 BKN012
      TEMPO 0110/0113 3SM BR BKN007
     FM011600 09007KT P6SM BKN018
     FM012000 09011KT P6SM SCT040
     FM020200 08012KT P6SM BKN030 PROB30 0202/0206 5SM TSRA
      OVC020CB=



000
FTUS44 KCRP 010532
TAFVCT
TAF
KVCT 010532Z 0106/0206 08005KT 2SM BR SCT015 BKN030
      TEMPO 0106/0108 1SM BR BKN015
     FM010800 08005KT 1SM BR SCT006 BKN012
      TEMPO 0108/0112 1/2SM FG BKN005
     FM011500 08008KT 5SM HZ VCSH BKN012 OVC025
     FM011900 09010G15KT P6SM BKN018 OVC030 PROB30 0119/0123 5SM
      TSRA OVC015CB
     FM020200 06008KT 5SM BR OVC012=



000
FTUS44 KCRP 010458 AAA
TAFALI
TAF AMD
KALI 010458Z 0105/0124 08005KT 3SM BR SCT012 BKN250
     FM010700 11005KT 2SM BR SCT009
      TEMPO 0108/0112 1/2SM FG BKN005
     FM011500 10008KT 6SM HZ BKN020
     FM011800 11012G18KT P6SM SCT030 PROB30 0121/0124 VRB20G30KT 5SM
      TSRA BKN025CB=



000
FTUS44 KCRP 010402 AAA
TAFVCT
TAF AMD
KVCT 010402Z 0104/0124 08005KT 5SM BR SCT015 BKN030
      TEMPO 0104/0108 3SM BR BKN015
     FM010800 11005KT 2SM BR SCT009
      TEMPO 0108/0112 1/2SM FG BKN005
     FM011500 11008KT 6SM HZ BKN020
     FM011800 12010G15KT P6SM SCT030 PROB30 0121/0124 VRB20G30KT 5SM
      TSRA BKN025CB=



000
FTUS44 KCRP 302353 CCA
TAFLRD
TAF COR
KLRD 302353Z 0100/0124 04003KT P6SM SCT250
     FM010900 10005KT 6SM HZ SCT009 BKN012
      TEMPO 0110/0112 3SM BR
     FM011600 09007KT P6SM SCT025
      TEMPO 0116/0118 BKN025
     FM012000 09012G18KT P6SM SCT040=



000
FTUS44 KCRP 302340
TAFCRP
TAF
KCRP 302340Z 0100/0124 09012KT P6SM SCT050 BKN250
     FM010300 11008KT P6SM SCT015 BKN250
     FM010900 11005KT 5SM BR SCT010
      TEMPO 0110/0112 BKN010
     FM011500 11012KT 6SM HZ BKN020
     FM011800 12015G20KT P6SM SCT030 PROB30 0120/0122 VRB20G30KT 5SM
      TSRA BKN025CB=



000
FTUS44 KCRP 302340
TAFALI
TAF
KALI 302340Z 0100/0124 04010KT P6SM SCT250
     FM010300 11006KT P6SM SCT012 BKN250
     FM010800 11005KT 2SM BR SCT009
      TEMPO 0108/0112 1/2SM FG BKN005
     FM011500 10008KT 6SM HZ BKN020
     FM011800 11012G18KT P6SM SCT030 PROB30 0121/0124 VRB20G30KT 5SM
      TSRA BKN025CB=



000
FTUS44 KCRP 302340
TAFVCT
TAF
KVCT 302340Z 0100/0124 04006KT P6SM SCT035 BKN050
     FM010700 08005KT 5SM BR BKN015
     FM010900 11005KT 2SM BR SCT009
      TEMPO 0109/0112 1/2SM FG BKN005
     FM011500 11008KT 6SM HZ BKN020
     FM011800 12010G15KT P6SM SCT030 PROB30 0121/0124 VRB20G30KT 5SM
      TSRA BKN025CB=



000
FTUS44 KCRP 302340
TAFLRD
TAF
KLRD 302340Z 0100/0124 04003KT P6SM SKC
     FM010100 06006KT P6SM SCT250
     FM010800 11006KT 6SM HZ BKN012
     FM011600 10006KT P6SM SCT025=



000
FTUS44 KCRP 302240 AAB
TAFVCT
TAF AMD
KVCT 302240Z 3023/0118 02007KT P6SM VCTS SCT030CB BKN035
      TEMPO 3023/3024 VRB20G40KT 2SM TSRA BKN025CB OVC035
     FM010100 13009KT P6SM SCT250
     FM010600 08005KT 5SM BR BKN015
      TEMPO 0109/0113 2SM BR OVC004
     FM011600 11008KT 6SM HZ BKN015=



000
FTUS44 KCRP 302135 AAA
TAFVCT
TAF AMD
KVCT 302135Z 3022/0118 02007KT P6SM VCTS SCT030CB BKN040
      TEMPO 3022/3023 VRB20G40KT 3SM TSRA BKN025CB OVC035
     FM010000 13009KT P6SM SCT250
     FM010600 08005KT 5SM BR BKN015
      TEMPO 0109/0113 2SM BR OVC004
     FM011600 11008KT 6SM HZ BKN015=



000
FTUS44 KCRP 301741
TAFALI
TAF
KALI 301741Z 3018/0118 07008KT P6SM BKN250
     FM302300 12010KT P6SM FEW050 BKN250
     FM010300 11006KT P6SM FEW012 BKN250
     FM010800 11005KT 4SM BR SCT008
      TEMPO 0108/0112 1/2SM FG OVC005
     FM011500 12008KT 6SM HZ BKN015=



000
FTUS44 KCRP 301741
TAFCRP
TAF
KCRP 301741Z 3018/0118 06007KT P6SM FEW025 BKN250
     FM302100 12010KT P6SM FEW035 BKN250
     FM010600 13007KT P6SM SCT015
     FM010900 09006KT 5SM BR OVC009
     FM011500 13010KT P6SM BKN015 BKN025=



000
FTUS44 KCRP 301741
TAFLRD
TAF
KLRD 301741Z 3018/0118 02008KT P6SM BKN250
     FM010100 06006KT P6SM SCT250
     FM010800 11006KT 6SM HZ BKN012
     FM011600 10006KT P6SM SCT025=



000
FTUS44 KCRP 301741
TAFVCT
TAF
KVCT 301741Z 3018/0118 03010KT 6SM HZ BKN025 BKN035
     FM302100 12010KT 6SM HZ VCTS BKN035CB
     FM010000 13009KT P6SM SCT250
     FM010600 08005KT 5SM BR BKN015
      TEMPO 0109/0113 2SM BR OVC004
     FM011600 11008KT 6SM HZ BKN015=



000
FTUS44 KCRP 301633 AAB
TAFVCT
TAF AMD
KVCT 301633Z 3017/0112 05007KT 6SM HZ BKN015 BKN025
     FM302100 12012KT P6SM VCTS BKN035CB
     FM010300 10006KT 5SM BR BKN012
     FM010800 07004KT 3SM BR OVC008=



000
FTUS44 KCRP 301525 AAA
TAFALI
TAF AMD
KALI 301525Z 3015/0112 07006KT P6SM BKN250
     FM302300 09010KT P6SM FEW050 BKN250
     FM010300 10006KT P6SM BKN012
     FM010800 11005KT 4SM BR OVC008=



000
FTUS44 KCRP 301524 AAB
TAFCRP
TAF AMD
KCRP 301524Z 3015/0112 07006KT P6SM BKN035 BKN250
     FM302000 13010KT P6SM SCT035 BKN250
     FM010300 12008KT P6SM BKN015
     FM010800 12006KT 5SM BR OVC009=



000
FTUS44 KCRP 301309 AAA
TAFLRD
TAF AMD
KLRD 301309Z 3013/0112 01008KT P6SM FEW015 BKN120
     FM010100 09010KT P6SM SCT250
     FM010900 11008KT 5SM BR OVC012=



000
FTUS44 KCRP 301306 AAB
TAFCRP
TAF AMD
KCRP 301306Z 3013/0112 VRB04KT 4SM BR FEW010 FEW025 BKN120
     FM301500 06006KT 6SM -SHRA BR BKN012 OVC040
     FM301800 13008KT P6SM BKN025
     FM302100 11012KT P6SM SCT035 BKN250
     FM010300 12008KT P6SM BKN015
     FM010800 12006KT 5SM BR OVC009=



000
FTUS44 KCRP 301306 AAB
TAFCRP
TAF AMD
KCRP 301306Z 3013/0112 VRB04KT 4SM BR FEW010 FEW025 BKN120
     FM301500 06006KT 6SM -SHRA BR BKN012 OVC040
     FM301800 13008KT P6SM BKN025
     FM302100 11012KT P6SM SCT035 BKN250
     FM010300 12008KT P6SM BKN015
     FM010800 12006KT 5SM BR OVC009=



000
FTUS44 KCRP 301243 AAA
TAFVCT
TAF AMD
KVCT 301243Z 3013/0112 VRB05KT 3SM BR VCSH FEW020 BKN030
     FM301430 06006KT P6SM FEW035 BKN120
     FM302100 12012KT P6SM BKN035
     FM010300 10006KT 5SM BR BKN012
     FM010800 07004KT 3SM BR OVC008=



000
FTUS44 KCRP 301122
TAFALI
TAF
KALI 301122Z 3012/0112 VRB03KT 3SM BR SCT006 OVC022
      TEMPO 3012/3014 2SM BR BKN006
     FM301500 03006KT 6SM HZ VCSH BKN015
     FM301700 06007KT P6SM BKN030
     FM302100 08010KT P6SM SCT050 BKN250
     FM010300 10006KT P6SM BKN012
     FM010800 11005KT 4SM BR OVC008=



000
FTUS44 KCRP 301122
TAFLRD
TAF
KLRD 301122Z 3012/0112 33008KT 6SM BR BKN009 OVC025
      TEMPO 3012/3014 SCT009 OVC015
     FM301500 36008KT P6SM SCT025 BKN250
     FM301800 02008KT P6SM SCT050 BKN250
     FM010100 09010KT P6SM SCT250
     FM010900 11008KT 5SM BR OVC012=



000
FTUS44 KCRP 301122
TAFCRP
TAF
KCRP 301122Z 3012/0112 16008KT 6SM BR SCT008 OVC015
      TEMPO 3012/3015 BKN009 OVC015
     FM301500 15007KT P6SM VCSH BKN012 OVC040
     FM301800 13008KT P6SM BKN025
     FM302100 11012KT P6SM SCT035 BKN250
     FM010300 12008KT P6SM BKN015
     FM010800 12006KT 5SM BR OVC009=



000
FTUS44 KCRP 301122
TAFVCT
TAF
KVCT 301122Z 3012/0112 02008KT 5SM -SHRA BR BKN011 OVC018
      TEMPO 3012/3014 2SM TSRA BKN008CB
     FM301600 06006KT P6SM BKN025
     FM302100 12012KT P6SM BKN035
     FM010300 10006KT 5SM BR BKN012
     FM010800 07004KT 3SM BR OVC008=



000
FTUS44 KCRP 301122
TAFALI
TAF
KALI 301122Z 3012/0112 VRB03KT 3SM BR SCT006 OVC022
      TEMPO 3012/3014 2SM BR BKN006
     FM301500 03006KT 6SM HZ VCSH BKN015
     FM301700 06007KT P6SM BKN030
     FM302100 08010KT P6SM SCT050 BKN250
     FM010300 10006KT P6SM BKN012
     FM010800 11005KT 4SM BR OVC008=



000
FTUS44 KCRP 301122
TAFLRD
TAF
KLRD 301122Z 3012/0112 33008KT 6SM BR BKN009 OVC025
      TEMPO 3012/3014 SCT009 OVC015
     FM301500 36008KT P6SM SCT025 BKN250
     FM301800 02008KT P6SM SCT050 BKN250
     FM010100 09010KT P6SM SCT250
     FM010900 11008KT 5SM BR OVC012=



000
FTUS44 KCRP 301122
TAFCRP
TAF
KCRP 301122Z 3012/0112 16008KT 6SM BR SCT008 OVC015
      TEMPO 3012/3015 BKN009 OVC015
     FM301500 15007KT P6SM VCSH BKN012 OVC040
     FM301800 13008KT P6SM BKN025
     FM302100 11012KT P6SM SCT035 BKN250
     FM010300 12008KT P6SM BKN015
     FM010800 12006KT 5SM BR OVC009=



000
FTUS44 KCRP 301122
TAFVCT
TAF
KVCT 301122Z 3012/0112 02008KT 5SM -SHRA BR BKN011 OVC018
      TEMPO 3012/3014 2SM TSRA BKN008CB
     FM301600 06006KT P6SM BKN025
     FM302100 12012KT P6SM BKN035
     FM010300 10006KT 5SM BR BKN012
     FM010800 07004KT 3SM BR OVC008=



000
FTUS44 KCRP 301100 AAA
TAFVCT
TAF AMD
KVCT 301100Z 3011/0106 02008KT 4SM BR BKN011 OVC018
      TEMPO 3011/3014 2SM TSRA BKN008CB
     FM301600 06006KT P6SM BKN025
     FM302100 12012KT P6SM BKN035
     FM010300 10006KT 5SM BR BKN012=



000
FTUS44 KCRP 301100 AAA
TAFVCT
TAF AMD
KVCT 301100Z 3011/0106 02008KT 4SM BR BKN011 OVC018
      TEMPO 3011/3014 2SM TSRA BKN008CB
     FM301600 06006KT P6SM BKN025
     FM302100 12012KT P6SM BKN035
     FM010300 10006KT 5SM BR BKN012=



000
FTUS44 KCRP 300948 AAA
TAFCRP
TAF AMD
KCRP 300948Z 3010/0106 16012KT 6SM BR SCT015 OVC030
      TEMPO 3010/3014 SCT009 OVC015
     FM301400 15007KT P6SM VCSH BKN012 OVC040
     FM301800 13008KT P6SM VCTS BKN025CB
     FM302100 11012KT P6SM SCT035
     FM010300 11008KT P6SM BKN015=



000
FTUS44 KCRP 300529
TAFVCT
TAF
KVCT 300529Z 3006/0106 17009KT 5SM BR OVC012
     FM300900 16005KT 4SM BR OVC008
      TEMPO 3010/3014 2SM TSRA BKN008CB OVC025
     FM301600 12006KT P6SM VCTS BKN025CB
      TEMPO 3016/3020 VRB15G30KT 5SM TSRA OVC020CB
     FM302100 12012KT P6SM BKN035
     FM010300 10006KT 5SM BR BKN012=



000
FTUS44 KCRP 300529
TAFLRD
TAF
KLRD 300529Z 3006/0106 08012KT P6SM SCT030 BKN250
     FM300800 VRB03KT P6SM BKN015 OVC250
      TEMPO 3009/3013 5SM BR OVC012
     FM301500 36008KT P6SM SCT025 BKN250
     FM301800 02008KT P6SM SCT050 BKN250
     FM010100 09010KT P6SM SCT250=



000
FTUS44 KCRP 300529
TAFALI
TAF
KALI 300529Z 3006/0106 17009KT 5SM BR SCT015 OVC025
     FM300800 16006KT 5SM BR SCT008 OVC015
     FM301100 15005KT 3SM BR BKN008 OVC015
     FM301500 11006KT 6SM HZ VCSH BKN015
     FM301700 07007KT P6SM VCTS BKN030CB
     FM302100 09010KT P6SM SCT050 BKN250
     FM010300 11006KT P6SM BKN012=



000
FTUS44 KCRP 300529
TAFCRP
TAF
KCRP 300529Z 3006/0106 17014G21KT 6SM HZ BKN012 OVC025
     FM300900 16008KT 5SM HZ BKN009 OVC015
     FM301400 15007KT P6SM VCSH BKN012 OVC040
     FM301800 13008KT P6SM VCTS BKN025CB
     FM302100 11012KT P6SM SCT035
     FM010300 11008KT P6SM BKN015=



000
FTUS44 KCRP 292340
TAFALI
TAF
KALI 292340Z 3000/3024 15012KT P6SM BKN040 OVC060
     FM300300 14009KT P6SM BKN025 OVC040
     FM300800 17004KT P6SM BKN009 OVC025
      TEMPO 3010/3013 5SM BR
     FM301500 VRB06KT 6SM HZ VCSH BKN015
     FM301700 02007KT P6SM VCTS BKN030CB
     FM302100 09005KT P6SM SCT040=



000
FTUS44 KCRP 292340
TAFCRP
TAF
KCRP 292340Z 3000/3024 17018G25KT P6SM SCT020 BKN030 OVC200
     FM300300 15012G18KT P6SM BKN025 OVC040
     FM300700 17004KT 6SM HZ BKN012 OVC025
     FM301400 18007KT P6SM VCSH BKN015
     FM301800 VRB03KT P6SM VCTS BKN025CB
     FM302100 12012KT P6SM SCT035=



000
FTUS44 KCRP 292340
TAFLRD
TAF
KLRD 292340Z 3000/3024 VRB04KT P6SM SCT040 BKN200
     FM300400 08012KT P6SM SCT030 BKN200
     FM300800 VRB03KT P6SM BKN015 OVC200
     FM301500 36012KT P6SM SCT025 BKN250=



000
FTUS44 KCRP 292340
TAFVCT
TAF
KVCT 292340Z 3000/3024 17012G16KT 5SM HZ VCTS SCT020CB OVC030
     FM300200 15009KT 5SM HZ BKN015 OVC020
      TEMPO 3004/3008 2SM TSRA BR OVC010CB
     FM300800 16005KT 3SM BR VCTS OVC009CB
     FM301800 VRB03KT P6SM VCTS BKN025CB
      TEMPO 3018/3021 VRB15G30KT 5SM TSRA OVC020CB
     FM302200 12012KT P6SM BKN030=



000
FTUS44 KCRP 291724
TAFALI
TAF
KALI 291724Z 2918/3018 15015G21KT P6SM BKN035
      TEMPO 2918/2919 BKN020
     FM300300 14009KT 5SM BR BKN008 OVC015
     FM300800 15006KT 3SM BR OVC006 PROB30 3008/3012 TSRA OVC006CB
     FM301500 09006KT P6SM BKN015=



000
FTUS44 KCRP 291724
TAFLRD
TAF
KLRD 291724Z 2918/3018 20011KT P6SM SCT050 BKN250
     FM300400 08012KT P6SM SCT025 BKN250
     FM300800 11008KT P6SM BKN015
     FM301500 02007KT P6SM SCT015=



000
FTUS44 KCRP 291724
TAFCRP
TAF
KCRP 291724Z 2918/3018 15020G29KT P6SM BKN030
     FM300200 15016KT P6SM BKN015
     FM300800 16012KT 5SM BR OVC009
     FM301500 10007KT P6SM BKN015=



000
FTUS44 KCRP 291724
TAFVCT
TAF
KVCT 291724Z 2918/3018 14012KT P6SM BKN050
      TEMPO 3000/3004 VRB20G35KT 3SM +TSRA OVC015CB
     FM300400 15008KT 5SM BR BKN012
      TEMPO 3004/3008 3SM TSRA BR OVC009CB
     FM300800 14006KT 3SM BR VCTS OVC009CB
     FM301500 15007KT P6SM BKN018=



000
FTUS44 KCRP 291724
TAFVCT
TAF
KVCT 291724Z 2918/3018 14012KT P6SM BKN050
      TEMPO 3000/3004 VRB20G35KT 3SM +TSRA OVC015CB
     FM300400 15008KT 5SM BR BKN012
      TEMPO 3004/3008 3SM TSRA BR OVC009CB
     FM300800 14006KT 3SM BR VCTS OVC009CB
     FM301500 15007KT P6SM BKN018=



000
FTUS44 KCRP 291724
TAFALI
TAF
KALI 291724Z 2918/3018 15015G21KT P6SM BKN035
      TEMPO 2918/2919 BKN020
     FM300300 14009KT 5SM BR BKN008 OVC015
     FM300800 15006KT 3SM BR OVC006 PROB30 3008/3012 TSRA OVC006CB
     FM301500 09006KT P6SM BKN015=



000
FTUS44 KCRP 291724
TAFCRP
TAF
KCRP 291724Z 2918/3018 15020G29KT P6SM BKN030
     FM300200 15016KT P6SM BKN015
     FM300800 16012KT 5SM BR OVC009
     FM301500 10007KT P6SM BKN015=



000
FTUS44 KCRP 291724
TAFLRD
TAF
KLRD 291724Z 2918/3018 20011KT P6SM SCT050 BKN250
     FM300400 08012KT P6SM SCT025 BKN250
     FM300800 11008KT P6SM BKN015
     FM301500 02007KT P6SM SCT015=



000
FTUS44 KCRP 291546 AAB
TAFCRP
TAF AMD
KCRP 291546Z 2916/3012 15019G29KT P6SM BKN018
     FM291800 15020G29KT P6SM BKN030
     FM300200 15016KT P6SM BKN015
     FM300800 16012KT 5SM BR OVC009=



000
FTUS44 KCRP 291243 AAA
TAFVCT
TAF AMD
KVCT 291243Z 2913/3012 14014KT 2SM BR OVC007
      TEMPO 2913/2915 1SM BR OVC004
     FM291500 15017KT 5SM HZ BKN015 OVC025
     FM291900 14015KT P6SM VCTS BKN025CB
     FM300000 14012KT P6SM BKN020
      TEMPO 3000/3004 VRB20G35KT 3SM +TSRA OVC015CB
     FM300400 15008KT 5SM BR BKN012
      TEMPO 3004/3008 3SM TSRA BR OVC009CB=



000
FTUS44 KCRP 291243 AAA
TAFVCT
TAF AMD
KVCT 291243Z 2913/3012 14014KT 2SM BR OVC007
      TEMPO 2913/2915 1SM BR OVC004
     FM291500 15017KT 5SM HZ BKN015 OVC025
     FM291900 14015KT P6SM VCTS BKN025CB
     FM300000 14012KT P6SM BKN020
      TEMPO 3000/3004 VRB20G35KT 3SM +TSRA OVC015CB
     FM300400 15008KT 5SM BR BKN012
      TEMPO 3004/3008 3SM TSRA BR OVC009CB=



000
FTUS44 KCRP 291121
TAFLRD
TAF
KLRD 291121Z 2912/3012 13010KT 6SM HZ OVC016
     FM291500 17008KT P6SM BKN025
     FM291700 24007KT P6SM SCT050 BKN250
     FM300400 08012KT P6SM SCT025 BKN250
     FM300800 11008KT P6SM BKN015=



000
FTUS44 KCRP 291121
TAFCRP
TAF
KCRP 291121Z 2912/3012 13017G25KT 5SM BR BKN009 OVC018
      TEMPO 2912/2915 3SM BR SCT009 OVC018
     FM291500 16017G27KT 5SM HZ SCT015 BKN025
     FM291800 15020G29KT P6SM BKN030
     FM300200 15016KT P6SM BKN015
     FM300800 16012KT 5SM BR OVC009=



000
FTUS44 KCRP 291121
TAFVCT
TAF
KVCT 291121Z 2912/3012 14014KT 4SM BR SCT008 BKN014 OVC030
      TEMPO 2912/2915 3SM BR BKN008 OVC014
     FM291500 15017KT 5SM HZ BKN015 OVC025
     FM291900 14015KT P6SM VCTS BKN025CB
     FM300000 14012KT P6SM BKN020
      TEMPO 3000/3004 VRB20G35KT 3SM +TSRA OVC015CB
     FM300400 15008KT 5SM BR BKN012
      TEMPO 3004/3008 3SM TSRA BR OVC009CB=



000
FTUS44 KCRP 291121
TAFALI
TAF
KALI 291121Z 2912/3012 13008KT 5SM BR BKN012 OVC020
      TEMPO 2912/2914 3SM BR BKN009
     FM291500 16016G23KT 5SM HZ BKN015 OVC025
     FM291900 15015G21KT P6SM BKN035
     FM300300 14009KT 5SM BR BKN008 OVC015
     FM300800 15006KT 3SM BR OVC006=



000
FTUS44 KCRP 291121
TAFLRD
TAF
KLRD 291121Z 2912/3012 13010KT 6SM HZ OVC016
     FM291500 17008KT P6SM BKN025
     FM291700 24007KT P6SM SCT050 BKN250
     FM300400 08012KT P6SM SCT025 BKN250
     FM300800 11008KT P6SM BKN015=



000
FTUS44 KCRP 291121
TAFVCT
TAF
KVCT 291121Z 2912/3012 14014KT 4SM BR SCT008 BKN014 OVC030
      TEMPO 2912/2915 3SM BR BKN008 OVC014
     FM291500 15017KT 5SM HZ BKN015 OVC025
     FM291900 14015KT P6SM VCTS BKN025CB
     FM300000 14012KT P6SM BKN020
      TEMPO 3000/3004 VRB20G35KT 3SM +TSRA OVC015CB
     FM300400 15008KT 5SM BR BKN012
      TEMPO 3004/3008 3SM TSRA BR OVC009CB=



000
FTUS44 KCRP 291121
TAFALI
TAF
KALI 291121Z 2912/3012 13008KT 5SM BR BKN012 OVC020
      TEMPO 2912/2914 3SM BR BKN009
     FM291500 16016G23KT 5SM HZ BKN015 OVC025
     FM291900 15015G21KT P6SM BKN035
     FM300300 14009KT 5SM BR BKN008 OVC015
     FM300800 15006KT 3SM BR OVC006=



000
FTUS44 KCRP 291121
TAFCRP
TAF
KCRP 291121Z 2912/3012 13017G25KT 5SM BR BKN009 OVC018
      TEMPO 2912/2915 3SM BR SCT009 OVC018
     FM291500 16017G27KT 5SM HZ SCT015 BKN025
     FM291800 15020G29KT P6SM BKN030
     FM300200 15016KT P6SM BKN015
     FM300800 16012KT 5SM BR OVC009=



    US Dept of Commerce
    National Oceanic and Atmospheric Administration
    National Weather Service
    1325 East West Highway
    Silver Spring, MD 20910
    Page Author: NWS Internet Services Team
Disclaimer
Information Quality
Credits
Glossary
Privacy Policy
Freedom of Information Act (FOIA)
About Us
Career Opportunities